createdAt,value
2019-01-12T00:00:28.970Z,1014.68
2019-01-12T00:01:09.468Z,1014.67
2019-01-12T00:01:49.926Z,1014.64
2019-01-12T00:02:31.978Z,1014.61
2019-01-12T00:03:15.083Z,1014.63
2019-01-12T00:03:58.261Z,1014.69
2019-01-12T00:04:40.876Z,1014.64
2019-01-12T00:05:25.747Z,1014.68
2019-01-12T00:06:06.389Z,1014.64
2019-01-12T00:06:54.520Z,1014.67
2019-01-12T00:07:47.539Z,1014.68
2019-01-12T00:08:27.832Z,1014.54
2019-01-12T00:09:08.962Z,1014.63
2019-01-12T00:09:49.827Z,1014.69
2019-01-12T00:10:30.237Z,1014.64
2019-01-12T00:11:12.475Z,1014.68
2019-01-12T00:11:53.258Z,1014.7
2019-01-12T00:12:33.857Z,1014.63
2019-01-12T00:13:14.977Z,1014.62
2019-01-12T00:13:56.544Z,1014.67
2019-01-12T00:14:38.811Z,1014.67
2019-01-12T00:15:20.102Z,1014.62
2019-01-12T00:16:00.637Z,1014.65
2019-01-12T00:16:40.980Z,1014.6
2019-01-12T00:17:25.020Z,1014.58
2019-01-12T00:18:06.905Z,1014.65
2019-01-12T00:18:48.556Z,1014.67
2019-01-12T00:19:30.473Z,1014.63
2019-01-12T00:20:12.952Z,1014.64
2019-01-12T00:20:53.425Z,1014.6
2019-01-12T00:21:34.763Z,1014.61
2019-01-12T00:22:15.218Z,1014.64
2019-01-12T00:22:55.631Z,1014.58
2019-01-12T00:23:38.291Z,1014.57
2019-01-12T00:24:23.771Z,1014.61
2019-01-12T00:25:08.270Z,1014.6
2019-01-12T00:25:48.600Z,1014.67
2019-01-12T00:26:29.180Z,1014.61
2019-01-12T00:27:09.366Z,1014.6
2019-01-12T00:28:00.299Z,1014.58
2019-01-12T00:28:40.748Z,1014.58
2019-01-12T00:29:28.166Z,1014.6
2019-01-12T00:30:10.471Z,1014.6
2019-01-12T00:30:52.955Z,1014.57
2019-01-12T00:31:33.293Z,1014.55
2019-01-12T00:32:32.598Z,1014.57
2019-01-12T00:33:14.977Z,1014.56
2019-01-12T00:33:56.320Z,1014.51
2019-01-12T00:34:36.797Z,1014.55
2019-01-12T00:35:19.193Z,1014.53
2019-01-12T00:42:37.562Z,1014.53
2019-01-12T00:43:19.284Z,1014.5
2019-01-12T00:44:03.726Z,1014.48
2019-01-12T00:44:44.883Z,1014.5
2019-01-12T00:45:25.440Z,1014.44
2019-01-12T00:46:05.832Z,1014.48
2019-01-12T00:46:46.568Z,1014.44
2019-01-12T00:47:28.903Z,1014.4
2019-01-12T00:48:10.298Z,1014.51
2019-01-12T00:48:50.626Z,1014.51
2019-01-12T00:49:31.939Z,1014.45
2019-01-12T00:50:13.269Z,1014.38
2019-01-12T00:50:54.049Z,1014.48
2019-01-12T00:51:34.489Z,1014.49
2019-01-12T00:52:16.430Z,1014.47
2019-01-12T00:52:56.606Z,1014.47
2019-01-12T00:53:48.167Z,1014.47
2019-01-12T00:54:47.174Z,1014.45
2019-01-12T00:55:31.280Z,1014.43
2019-01-12T00:56:12.116Z,1014.43
2019-01-12T00:56:54.146Z,1014.47
2019-01-12T00:57:36.261Z,1014.5
2019-01-12T00:58:18.003Z,1014.46
2019-01-12T00:58:58.428Z,1014.48
2019-01-12T00:59:42.713Z,1014.47
2019-01-12T01:00:25.094Z,1014.48
2019-01-12T01:01:07.949Z,1014.47
2019-01-12T01:01:50.116Z,1014.45
2019-01-12T01:02:33.050Z,1014.42
2019-01-12T01:03:17.136Z,1014.4
2019-01-12T01:03:58.109Z,1014.32
2019-01-12T01:04:40.091Z,1014.38
2019-01-12T01:05:22.828Z,1014.39
2019-01-12T01:06:03.129Z,1014.34
2019-01-12T01:06:45.333Z,1014.36
2019-01-12T01:07:25.978Z,1014.4
2019-01-12T01:08:06.987Z,1014.37
2019-01-12T01:08:47.364Z,1014.35
2019-01-12T01:09:32.536Z,1014.41
2019-01-12T01:10:17.636Z,1014.38
2019-01-12T01:46:39.824Z,1014.45
2019-01-12T01:47:25.963Z,1014.49
2019-01-12T01:48:06.400Z,1014.44
2019-01-12T01:48:49.665Z,1014.46
2019-01-12T01:49:30.075Z,1014.48
2019-01-12T01:50:10.503Z,1014.49
2019-01-12T01:50:51.152Z,1014.52
2019-01-12T01:51:48.759Z,1014.43
2019-01-12T01:52:29.395Z,1014.44
2019-01-12T01:53:11.538Z,1014.45
2019-01-12T01:53:51.932Z,1014.45
2019-01-12T01:54:32.384Z,1014.38
2019-01-12T01:55:16.250Z,1014.46
2019-01-12T01:55:56.985Z,1014.39
2019-01-12T01:56:38.317Z,1014.41
2019-01-12T01:57:20.823Z,1014.41
2019-01-12T01:58:02.836Z,1014.4
2019-01-12T01:58:44.879Z,1014.42
2019-01-12T01:59:25.229Z,1014.46
2019-01-12T02:00:14.625Z,1014.43
2019-01-12T02:00:55.369Z,1014.48
2019-01-12T02:01:46.669Z,1014.41
2019-01-12T02:02:30.228Z,1014.41
2019-01-12T02:03:10.701Z,1014.43
2019-01-12T02:03:52.665Z,1014.41
2019-01-12T02:04:33.239Z,1014.45
2019-01-12T02:05:17.399Z,1014.46
2019-01-12T02:06:18.666Z,1014.37
2019-01-12T03:59:51.285Z,1013.51
2019-01-12T05:14:47.924Z,1013.24
2019-01-12T05:22:21.752Z,1013.21
2019-01-12T05:23:14.167Z,1013.26
2019-01-12T05:24:17.590Z,1013.26
2019-01-12T05:25:19.504Z,1013.23
2019-01-12T05:26:14.334Z,1013.27
2019-01-12T05:27:31.735Z,1013.28
2019-01-12T05:28:26.083Z,1013.26
2019-01-12T05:29:35.103Z,1013.31
2019-01-12T05:30:32.629Z,1013.32
2019-01-12T05:42:59.618Z,1013.21
2019-01-12T05:47:07.461Z,1013.22
2019-01-12T05:48:00.770Z,1013.28
2019-01-12T05:49:00.058Z,1013.26
2019-01-12T05:49:54.195Z,1013.27
2019-01-12T05:55:24.869Z,1013.26
2019-01-12T05:56:17.825Z,1013.28
2019-01-12T05:57:11.130Z,1013.27
2019-01-12T05:58:07.638Z,1013.27
2019-01-12T06:44:45.389Z,1013.07
2019-01-12T06:54:46.326Z,1012.85
2019-01-12T06:55:41.850Z,1012.86
2019-01-12T06:56:38.041Z,1012.82
2019-01-12T06:59:31.502Z,1012.82
2019-01-12T07:00:27.188Z,1012.82
2019-01-12T07:01:25.505Z,1012.8
2019-01-12T07:15:51.829Z,1012.67
2019-01-12T07:16:56.768Z,1012.68
2019-01-12T07:17:51.194Z,1012.67
2019-01-12T07:20:28.400Z,1012.61
2019-01-12T07:29:16.656Z,1012.61
2019-01-12T07:30:14.447Z,1012.55
2019-01-12T07:31:15.328Z,1012.57
2019-01-12T07:34:49.929Z,1012.54
2019-01-12T07:35:33.816Z,1012.48
2019-01-12T07:36:14.571Z,1012.38
2019-01-12T07:36:55.162Z,1012.57
2019-01-12T07:37:35.799Z,1012.54
2019-01-12T07:38:16.758Z,1012.55
2019-01-12T07:38:57.046Z,1012.53
2019-01-12T07:39:38.863Z,1012.54
2019-01-12T07:40:20.166Z,1012.52
2019-01-12T07:41:00.569Z,1012.54
2019-01-12T07:41:40.986Z,1012.55
2019-01-12T07:42:22.109Z,1012.55
2019-01-12T07:43:01.778Z,1012.52
2019-01-12T07:43:43.945Z,1012.57
2019-01-12T07:44:25.172Z,1012.52
2019-01-12T07:45:05.977Z,1012.48
2019-01-12T07:45:46.384Z,1012.46
2019-01-12T07:46:26.823Z,1012.54
2019-01-12T07:47:07.453Z,1012.54
2019-01-12T07:47:47.787Z,1012.52
2019-01-12T07:48:28.197Z,1012.57
2019-01-12T07:54:29.749Z,1012.48
2019-01-12T07:55:25.643Z,1012.54
2019-01-12T07:56:24.520Z,1012.54
2019-01-12T07:57:15.821Z,1012.51
2019-01-12T07:58:26.956Z,1012.49
2019-01-12T07:59:22.260Z,1012.43
2019-01-12T08:01:05.928Z,1012.42
2019-01-12T08:04:00.002Z,1012.44
2019-01-12T08:06:59.582Z,1012.32
2019-01-12T08:08:17.028Z,1012.25
2019-01-12T08:11:59.783Z,1012.2
2019-01-12T08:12:54.190Z,1012.12
2019-01-12T08:13:50.394Z,1012.13
2019-01-12T08:14:54.768Z,1012.15
2019-01-12T08:15:54.668Z,1012.14
2019-01-12T08:16:49.294Z,1012.04
2019-01-12T08:18:10.219Z,1012.03
2019-01-12T08:19:04.982Z,1012
2019-01-12T08:19:59.971Z,1012.05
2019-01-12T08:21:16.359Z,1012.04
2019-01-12T08:25:49.475Z,1011.93
2019-01-12T08:26:46.310Z,1011.88
2019-01-12T08:39:20.356Z,1011.59
2019-01-12T08:40:17.496Z,1011.6
2019-01-12T08:42:10.948Z,1011.64
2019-01-12T08:42:52.509Z,1011.57
2019-01-12T08:43:34.835Z,1011.63
2019-01-12T08:44:17.086Z,1011.58
2019-01-12T08:44:57.903Z,1011.53
2019-01-12T08:45:51.582Z,1011.45
2019-01-12T08:46:31.777Z,1011.49
2019-01-12T08:47:14.418Z,1011.42
2019-01-12T08:47:57.917Z,1011.41
2019-01-12T08:48:39.754Z,1011.41
2019-01-12T08:49:21.196Z,1011.41
2019-01-12T08:50:02.798Z,1011.41
2019-01-12T08:50:45.274Z,1011.36
2019-01-12T08:51:25.723Z,1011.35
2019-01-12T08:52:07.976Z,1011.37
2019-01-12T08:52:49.204Z,1011.38
2019-01-12T08:53:36.657Z,1011.43
2019-01-12T08:54:24.255Z,1011.43
2019-01-12T08:55:06.624Z,1011.4
2019-01-12T08:55:47.005Z,1011.37
2019-01-12T08:56:27.388Z,1011.38
2019-01-12T08:57:08.546Z,1011.43
2019-01-12T08:57:50.278Z,1011.48
2019-01-12T08:58:31.631Z,1011.49
2019-01-12T08:59:13.916Z,1011.47
2019-01-12T08:59:54.210Z,1011.52
2019-01-12T09:02:41.543Z,1011.53
2019-01-12T09:25:12.589Z,1011.21
2019-01-12T09:26:23.614Z,1011.25
2019-01-12T09:31:57.660Z,1010.96
2019-01-12T09:32:59.494Z,1011.03
2019-01-12T09:33:51.705Z,1011.02
2019-01-12T09:34:44.551Z,1011.01
2019-01-12T09:35:38.566Z,1011.05
2019-01-12T09:36:31.500Z,1010.99
2019-01-12T09:37:23.660Z,1010.96
2019-01-12T09:54:49.124Z,1010.97
2019-01-12T09:55:33.123Z,1010.93
2019-01-12T09:56:18.125Z,1011.02
2019-01-12T09:56:59.455Z,1010.9
2019-01-12T09:57:43.516Z,1010.99
2019-01-12T09:58:23.831Z,1010.98
2019-01-12T09:59:04.726Z,1011
2019-01-12T09:59:45.140Z,1011.02
2019-01-12T10:00:27.381Z,1011
2019-01-12T10:01:09.806Z,1010.99
2019-01-12T10:01:50.349Z,1010.86
2019-01-12T10:02:32.220Z,1010.95
2019-01-12T10:03:14.653Z,1010.93
2019-01-12T10:03:55.050Z,1010.86
2019-01-12T10:04:36.553Z,1010.84
2019-01-12T10:05:17.051Z,1010.9
2019-01-12T10:05:57.461Z,1010.83
2019-01-12T10:06:39.878Z,1010.86
2019-01-12T10:07:21.888Z,1010.8
2019-01-12T10:08:04.271Z,1010.78
2019-01-12T10:08:44.523Z,1010.79
2019-01-12T10:09:27.379Z,1010.71
2019-01-12T10:11:04.186Z,1010.71
2019-01-12T10:11:44.569Z,1010.74
2019-01-12T10:12:28.909Z,1010.75
2019-01-12T10:13:09.398Z,1010.69
2019-01-12T10:13:50.005Z,1010.62
2019-01-12T10:14:35.031Z,1010.65
2019-01-12T10:15:20.211Z,1010.7
2019-01-12T10:16:00.757Z,1010.61
2019-01-12T10:16:44.174Z,1010.65
2019-01-12T10:17:28.641Z,1010.61
2019-01-12T10:21:17.577Z,1010.44
2019-01-12T10:23:27.150Z,1010.47
2019-01-12T10:24:46.543Z,1010.39
2019-01-12T10:25:43.143Z,1010.43
2019-01-12T11:10:04.172Z,1009.37
2019-01-12T11:10:43.768Z,1009.41
2019-01-12T11:11:24.291Z,1009.45
2019-01-12T11:12:06.374Z,1009.32
2019-01-12T11:12:46.756Z,1009.36
2019-01-12T11:13:27.360Z,1009.46
2019-01-12T11:14:07.600Z,1009.44
2019-01-12T11:14:49.004Z,1009.47
2019-01-12T11:15:29.360Z,1009.44
2019-01-12T11:16:09.831Z,1009.37
2019-01-12T11:16:51.260Z,1009.43
2019-01-12T11:17:36.127Z,1009.34
2019-01-12T11:18:16.292Z,1009.38
2019-01-12T11:18:57.664Z,1009.33
2019-01-12T11:19:38.092Z,1009.26
2019-01-12T11:20:18.702Z,1009.31
2019-01-12T11:21:00.063Z,1009.36
2019-01-12T11:21:40.769Z,1009.35
2019-01-12T11:22:21.219Z,1009.37
2019-01-12T11:23:01.602Z,1009.25
2019-01-12T11:23:42.318Z,1009.39
2019-01-12T11:24:23.047Z,1009.32
2019-01-12T11:25:03.420Z,1009.34
2019-01-12T11:25:44.007Z,1009.22
2019-01-12T11:26:24.354Z,1009.29
2019-01-12T11:27:12.146Z,1009.2
2019-01-12T11:27:47.240Z,1009.26
2019-01-12T11:28:27.644Z,1009.27
2019-01-12T11:29:08.042Z,1009.18
2019-01-12T11:29:49.540Z,1009.12
2019-01-12T11:30:29.801Z,1009.15
2019-01-12T11:31:10.259Z,1009.12
2019-01-12T11:31:51.624Z,1009.13
2019-01-12T11:32:32.074Z,1009.15
2019-01-12T11:33:16.355Z,1009.08
2019-01-12T11:33:56.911Z,1009.1
2019-01-12T11:34:39.077Z,1009.02
2019-01-12T11:35:21.037Z,1008.96
2019-01-12T11:36:01.416Z,1009
2019-01-12T11:36:42.801Z,1008.95
2019-01-12T11:37:23.150Z,1008.8
2019-01-12T11:38:05.389Z,1008.92
2019-01-12T11:38:50.423Z,1008.97
2019-01-12T11:39:31.957Z,1009.07
2019-01-12T11:40:12.375Z,1009.01
2019-01-12T11:40:54.582Z,1009.08
2019-01-12T11:41:36.565Z,1009.06
2019-01-12T11:42:19.281Z,1008.92
2019-01-12T11:43:00.577Z,1009.08
2019-01-12T11:43:41.111Z,1009
2019-01-12T11:44:23.680Z,1009.06
2019-01-12T11:45:06.008Z,1009.07
2019-01-12T11:45:48.806Z,1008.99
2019-01-12T11:46:29.442Z,1009.04
2019-01-12T11:47:11.799Z,1009.09
2019-01-12T11:47:54.171Z,1008.89
2019-01-12T11:48:36.847Z,1008.92
2019-01-12T11:49:17.301Z,1008.92
2019-01-12T11:49:59.317Z,1008.95
2019-01-12T11:50:39.759Z,1008.83
2019-01-12T11:51:21.760Z,1008.9
2019-01-12T11:52:04.266Z,1008.97
2019-01-12T11:52:44.912Z,1008.76
2019-01-12T11:53:27.188Z,1008.87
2019-01-12T11:54:07.523Z,1008.88
2019-01-12T11:54:49.152Z,1008.79
2019-01-12T11:55:31.741Z,1008.76
2019-01-12T11:56:13.982Z,1008.75
2019-01-12T11:56:55.623Z,1008.76
2019-01-12T11:57:37.583Z,1008.76
2019-01-12T11:58:18.993Z,1008.85
2019-01-12T11:58:59.329Z,1008.84
2019-01-12T12:04:24.642Z,1008.69
2019-01-12T12:05:07.140Z,1008.51
2019-01-12T12:05:47.629Z,1008.62
2019-01-12T12:06:29.660Z,1008.5
2019-01-12T12:07:11.746Z,1008.66
2019-01-12T12:07:52.234Z,1008.52
2019-01-12T12:08:34.590Z,1008.45
2019-01-12T12:09:14.926Z,1008.46
2019-01-12T12:09:55.469Z,1008.52
2019-01-12T12:10:35.775Z,1008.46
2019-01-12T12:11:16.133Z,1008.4
2019-01-12T12:11:57.569Z,1008.41
2019-01-12T12:12:39.678Z,1008.34
2019-01-12T12:13:20.665Z,1008.33
2019-01-12T12:14:00.886Z,1008.32
2019-01-12T12:14:41.299Z,1008.28
2019-01-12T12:15:22.649Z,1008.24
2019-01-12T12:16:03.667Z,1008.25
2019-01-12T12:16:45.032Z,1008.25
2019-01-12T12:17:27.299Z,1008.2
2019-01-12T12:18:07.639Z,1008.17
2019-01-12T12:18:50.830Z,1007.98
2019-01-12T12:19:31.235Z,1008.15
2019-01-12T12:20:13.404Z,1008.08
2019-01-12T12:20:55.393Z,1008.17
2019-01-12T12:21:35.946Z,1008.12
2019-01-12T12:22:17.201Z,1008.13
2019-01-12T12:23:01.041Z,1008.14
2019-01-12T12:23:41.975Z,1008.09
2019-01-12T12:24:24.560Z,1008.01
2019-01-12T12:25:06.894Z,1007.98
2019-01-12T12:25:48.234Z,1008.04
2019-01-12T12:26:28.706Z,1007.98
2019-01-12T12:27:09.075Z,1007.98
2019-01-12T12:27:49.487Z,1007.96
2019-01-12T12:28:30.036Z,1007.91
2019-01-12T12:29:10.459Z,1007.94
2019-01-12T12:29:52.882Z,1007.92
2019-01-12T12:30:33.114Z,1007.9
2019-01-12T12:31:13.744Z,1007.93
2019-01-12T12:31:54.293Z,1007.88
2019-01-12T12:34:10.333Z,1007.83
2019-01-12T12:41:14.559Z,1007.58
2019-01-12T12:41:54.671Z,1007.52
2019-01-12T12:42:36.047Z,1007.46
2019-01-12T12:43:17.519Z,1007.46
2019-01-12T12:43:57.989Z,1007.42
2019-01-12T12:44:38.301Z,1007.33
2019-01-12T12:45:20.533Z,1007.39
2019-01-12T12:46:00.903Z,1007.36
2019-01-12T12:46:45.517Z,1007.35
2019-01-12T12:47:27.632Z,1007.31
2019-01-12T12:48:08.069Z,1007.25
2019-01-12T12:48:48.586Z,1007.27
2019-01-12T12:49:31.856Z,1007.32
2019-01-12T12:50:12.208Z,1007.35
2019-01-12T12:50:52.605Z,1007.25
2019-01-12T12:51:33.255Z,1007.17
2019-01-12T12:52:13.421Z,1007.25
2019-01-12T12:52:57.319Z,1007.24
2019-01-12T12:53:38.280Z,1007.22
2019-01-12T12:54:19.647Z,1007.26
2019-01-12T12:55:00.090Z,1007.23
2019-01-12T12:55:40.520Z,1007.17
2019-01-12T12:56:22.670Z,1007.14
2019-01-12T12:57:03.176Z,1007.13
2019-01-12T12:57:45.286Z,1007.1
2019-01-12T12:58:25.640Z,1007.17
2019-01-12T12:59:07.878Z,1006.95
2019-01-12T12:59:49.212Z,1006.84
2019-01-12T13:00:29.707Z,1006.92
2019-01-12T13:01:10.126Z,1007.01
2019-01-12T13:01:51.568Z,1007.01
2019-01-12T13:02:31.982Z,1006.99
2019-01-12T13:03:13.983Z,1006.95
2019-01-12T13:03:54.396Z,1006.94
2019-01-12T13:04:34.797Z,1006.91
2019-01-12T13:05:15.373Z,1006.92
2019-01-12T13:05:55.901Z,1006.92
2019-01-12T13:06:37.891Z,1006.71
2019-01-12T13:07:18.341Z,1006.97
2019-01-12T13:07:58.606Z,1006.99
2019-01-12T13:08:40.998Z,1006.91
2019-01-12T13:09:21.318Z,1006.97
2019-01-12T13:10:03.133Z,1006.89
2019-01-12T13:10:43.571Z,1006.75
2019-01-12T13:11:23.998Z,1006.71
2019-01-12T13:12:04.537Z,1006.76
2019-01-12T13:12:46.331Z,1006.84
2019-01-12T13:13:27.704Z,1006.79
2019-01-12T13:14:08.112Z,1006.91
2019-01-12T13:14:48.699Z,1006.92
2019-01-12T13:15:30.703Z,1006.82
2019-01-12T13:16:13.953Z,1006.63
2019-01-12T13:16:54.308Z,1006.77
2019-01-12T13:17:34.677Z,1006.7
2019-01-12T13:18:15.095Z,1006.8
2019-01-12T13:18:55.553Z,1006.78
2019-01-12T13:19:35.958Z,1006.77
2019-01-12T13:20:16.751Z,1006.7
2019-01-12T13:20:57.117Z,1006.74
2019-01-12T13:21:37.473Z,1006.79
2019-01-12T13:22:18.785Z,1006.8
2019-01-12T13:22:59.625Z,1006.81
2019-01-12T13:23:40.083Z,1006.78
2019-01-12T13:24:20.386Z,1006.73
2019-01-12T13:25:00.768Z,1006.6
2019-01-12T13:25:42.824Z,1006.72
2019-01-12T13:26:23.221Z,1006.77
2019-01-12T13:27:04.538Z,1006.68
2019-01-12T13:27:44.715Z,1006.75
2019-01-12T13:28:26.853Z,1006.69
2019-01-12T13:29:07.459Z,1006.66
2019-01-12T13:29:47.819Z,1006.61
2019-01-12T13:30:28.292Z,1006.58
2019-01-12T13:31:08.715Z,1006.61
2019-01-12T13:31:50.013Z,1006.57
2019-01-12T13:32:31.944Z,1006.64
2019-01-12T13:33:12.353Z,1006.73
2019-01-12T13:33:52.981Z,1006.61
2019-01-12T13:34:33.164Z,1006.58
2019-01-12T13:35:13.941Z,1006.48
2019-01-12T13:35:56.360Z,1006.53
2019-01-12T13:36:36.827Z,1006.49
2019-01-12T13:37:17.476Z,1006.52
2019-01-12T13:37:57.885Z,1006.51
2019-01-12T13:38:38.259Z,1006.49
2019-01-12T13:39:18.663Z,1006.52
2019-01-12T13:39:59.101Z,1006.45
2019-01-12T13:40:39.661Z,1006.46
2019-01-12T13:41:21.198Z,1006.28
2019-01-12T13:42:01.731Z,1006.17
2019-01-12T13:42:42.156Z,1006.35
2019-01-12T13:43:22.542Z,1006.4
2019-01-12T13:44:04.787Z,1006.41
2019-01-12T13:44:49.383Z,1006.4
2019-01-12T13:45:29.789Z,1006.51
2019-01-12T13:46:13.896Z,1006.45
2019-01-12T13:46:56.869Z,1006.43
2019-01-12T13:47:37.251Z,1006.44
2019-01-12T13:48:17.599Z,1006.49
2019-01-12T13:48:58.029Z,1006.51
2019-01-12T13:49:38.478Z,1006.34
2019-01-12T13:50:20.377Z,1006.38
2019-01-12T13:51:02.839Z,1006.29
2019-01-12T13:51:43.354Z,1006.32
2019-01-12T13:52:23.783Z,1006.36
2019-01-12T13:53:04.355Z,1006.14
2019-01-12T13:53:44.706Z,1006.36
2019-01-12T13:54:26.992Z,1006.33
2019-01-12T13:55:08.572Z,1006.09
2019-01-12T13:55:50.957Z,1006.25
2019-01-12T13:56:31.329Z,1006.2
2019-01-12T13:57:13.569Z,1006.14
2019-01-12T13:58:06.765Z,1006.25
2019-01-12T13:58:47.275Z,1006.21
2019-01-12T13:59:27.648Z,1006.34
2019-01-12T14:00:09.667Z,1006.21
2019-01-12T14:00:51.047Z,1006.1
2019-01-12T14:01:32.371Z,1006.18
2019-01-12T14:02:13.064Z,1006.12
2019-01-12T14:02:53.543Z,1006.22
2019-01-12T14:03:34.376Z,1006.12
2019-01-12T14:04:25.993Z,1006.07
2019-01-12T14:05:06.406Z,1006.06
2019-01-12T14:05:47.046Z,1006.08
2019-01-12T14:06:29.205Z,1006.07
2019-01-12T14:07:10.515Z,1006.06
2019-01-12T14:07:56.326Z,1006.05
2019-01-12T14:08:33.512Z,1006.03
2019-01-12T14:09:15.451Z,1006.04
2019-01-12T14:09:55.857Z,1006.01
2019-01-12T14:10:37.754Z,1005.97
2019-01-12T14:11:19.840Z,1005.84
2019-01-12T14:12:01.909Z,1006.07
2019-01-12T14:12:42.292Z,1005.95
2019-01-12T14:13:24.647Z,1006.05
2019-01-12T14:14:04.997Z,1006.06
2019-01-12T14:14:45.605Z,1006.03
2019-01-12T14:15:29.547Z,1005.95
2019-01-12T14:16:10.871Z,1005.97
2019-01-12T14:16:51.330Z,1006.01
2019-01-12T14:17:31.741Z,1006.02
2019-01-12T14:18:12.261Z,1006.05
2019-01-12T14:18:52.833Z,1006.09
2019-01-12T14:19:35.869Z,1005.95
2019-01-12T14:20:16.333Z,1005.95
2019-01-12T14:20:57.999Z,1005.98
2019-01-12T14:21:40.167Z,1005.96
2019-01-12T14:22:20.522Z,1006.03
2019-01-12T14:23:03.035Z,1006.01
2019-01-12T14:23:43.298Z,1005.99
2019-01-12T14:24:24.046Z,1006
2019-01-12T14:25:07.978Z,1005.88
2019-01-12T14:25:50.220Z,1005.9
2019-01-12T14:26:32.631Z,1005.98
2019-01-12T14:27:15.945Z,1005.92
2019-01-12T14:27:56.561Z,1005.96
2019-01-12T14:28:40.665Z,1005.85
2019-01-12T14:29:22.783Z,1005.86
2019-01-12T14:30:03.168Z,1005.87
2019-01-12T14:30:43.944Z,1005.93
2019-01-12T14:31:25.190Z,1005.89
2019-01-12T14:32:05.659Z,1005.85
2019-01-12T14:32:45.998Z,1005.99
2019-01-12T14:33:27.043Z,1005.96
2019-01-12T14:34:09.358Z,1005.89
2019-01-12T14:34:49.822Z,1005.56
2019-01-12T14:35:31.462Z,1005.87
2019-01-12T14:36:11.518Z,1005.81
2019-01-12T14:36:52.516Z,1005.78
2019-01-12T14:37:32.261Z,1005.72
2019-01-12T14:38:12.635Z,1005.75
2019-01-12T14:38:53.429Z,1005.75
2019-01-12T14:39:35.586Z,1005.76
2019-01-12T14:40:18.370Z,1005.77
2019-01-12T14:40:59.387Z,1005.73
2019-01-12T14:41:40.522Z,1005.7
2019-01-12T14:42:20.521Z,1005.7
2019-01-12T14:43:00.890Z,1005.68
2019-01-12T14:43:42.552Z,1005.63
2019-01-12T14:44:22.706Z,1005.62
2019-01-12T14:45:08.719Z,1005.67
2019-01-12T14:45:49.135Z,1005.6
2019-01-12T14:46:29.797Z,1005.7
2019-01-12T14:47:10.083Z,1005.66
2019-01-12T14:47:50.579Z,1005.64
2019-01-12T14:48:30.895Z,1005.67
2019-01-12T14:49:13.247Z,1005.67
2019-01-12T14:49:53.704Z,1005.63
2019-01-12T14:50:34.209Z,1005.68
2019-01-12T14:51:16.538Z,1005.63
2019-01-12T14:51:57.075Z,1005.64
2019-01-12T14:52:37.444Z,1005.58
2019-01-12T14:53:17.889Z,1005.52
2019-01-12T14:54:00.062Z,1005.54
2019-01-12T14:54:42.972Z,1005.62
2019-01-12T14:55:23.523Z,1005.58
2019-01-12T14:56:07.174Z,1005.6
2019-01-12T14:56:50.803Z,1005.58
2019-01-12T14:57:36.823Z,1005.6
2019-01-12T14:58:17.110Z,1005.59
2019-01-12T14:58:57.528Z,1005.59
2019-01-12T14:59:38.135Z,1005.58
2019-01-12T15:00:20.421Z,1005.59
2019-01-12T15:01:00.913Z,1005.66
2019-01-12T15:01:41.296Z,1005.58
2019-01-12T15:02:23.157Z,1005.64
2019-01-12T15:03:02.410Z,1005.57
2019-01-12T15:03:43.865Z,1005.62
2019-01-12T15:04:24.316Z,1005.59
2019-01-12T15:05:05.195Z,1005.57
2019-01-12T15:05:47.715Z,1005.57
2019-01-12T15:06:29.045Z,1005.65
2019-01-12T15:07:10.392Z,1005.53
2019-01-12T15:07:50.551Z,1005.55
2019-01-12T15:08:30.913Z,1005.51
2019-01-12T15:09:11.339Z,1005.54
2019-01-12T15:09:52.002Z,1005.54
2019-01-12T15:10:32.377Z,1005.49
2019-01-12T15:11:16.790Z,1005.53
2019-01-12T15:11:58.331Z,1005.46
2019-01-12T15:12:39.627Z,1005.54
2019-01-12T15:13:20.117Z,1005.48
2019-01-12T15:14:19.241Z,1005.46
2019-01-12T15:15:00.252Z,1005.49
2019-01-12T15:15:48.400Z,1005.49
2019-01-12T15:16:30.677Z,1005.48
2019-01-12T15:17:13.404Z,1005.49
2019-01-12T15:17:56.311Z,1005.46
2019-01-12T15:18:38.741Z,1005.53
2019-01-12T15:19:21.198Z,1005.51
2019-01-12T15:20:01.716Z,1005.48
2019-01-12T15:20:42.081Z,1005.38
2019-01-12T15:21:23.484Z,1005.36
2019-01-12T15:22:05.641Z,1005.38
2019-01-12T15:22:46.406Z,1005.21
2019-01-12T15:23:27.597Z,1005.41
2019-01-12T15:24:10.168Z,1005.37
2019-01-12T15:24:51.443Z,1005.29
2019-01-12T15:25:31.864Z,1005.37
2019-01-12T15:26:13.867Z,1005.29
2019-01-12T15:26:54.164Z,1005.42
2019-01-12T15:27:34.609Z,1005.42
2019-01-12T15:28:16.116Z,1005.43
2019-01-12T15:28:56.426Z,1005.36
2019-01-12T15:29:36.884Z,1005.43
2019-01-12T15:30:18.880Z,1005.37
2019-01-12T15:30:59.293Z,1005.4
2019-01-12T15:31:39.780Z,1005.41
2019-01-12T15:32:20.105Z,1005.35
2019-01-12T15:33:00.827Z,1005.36
2019-01-12T15:33:41.869Z,1005.4
2019-01-12T15:37:58.153Z,1005.36
2019-01-12T15:39:51.268Z,1005.3
2019-01-12T15:40:32.211Z,1005.28
2019-01-12T15:41:12.574Z,1005.37
2019-01-12T15:41:52.953Z,1005.3
2019-01-12T15:42:33.395Z,1005.14
2019-01-12T15:43:14.416Z,1005.36
2019-01-12T15:43:54.901Z,1005.21
2019-01-12T15:44:35.363Z,1005.27
2019-01-12T15:45:15.800Z,1005.35
2019-01-12T15:45:56.192Z,1005.25
2019-01-12T15:46:36.660Z,1005.31
2019-01-12T15:47:17.034Z,1005.22
2019-01-12T15:47:58.324Z,1005.2
2019-01-12T15:48:38.836Z,1005.15
2019-01-12T15:49:19.296Z,1005.28
2019-01-12T15:49:59.963Z,1005.19
2019-01-12T15:50:40.336Z,1005.19
2019-01-12T15:51:20.846Z,1005.18
2019-01-12T15:52:01.225Z,1005.19
2019-01-12T15:52:41.735Z,1005.2
2019-01-12T15:53:22.838Z,1005.28
2019-01-12T15:54:03.255Z,1005.21
2019-01-12T15:54:43.565Z,1005.21
2019-01-12T15:55:24.070Z,1005.25
2019-01-12T15:56:05.474Z,1005.31
2019-01-12T15:56:45.958Z,1005.25
2019-01-12T15:57:26.270Z,1005.31
2019-01-12T15:58:06.719Z,1005.3
2019-01-12T15:58:47.111Z,1005.31
2019-01-12T15:59:27.455Z,1005.29
2019-01-12T16:00:07.867Z,1005.28
2019-01-12T16:00:48.357Z,1005.34
2019-01-12T16:01:28.899Z,1005.27
2019-01-12T16:02:09.233Z,1005.32
2019-01-12T16:02:49.961Z,1005.25
2019-01-12T16:03:30.259Z,1005.34
2019-01-12T16:04:10.669Z,1005.26
2019-01-12T16:04:51.114Z,1005.22
2019-01-12T16:05:31.807Z,1005.34
2019-01-12T16:06:12.352Z,1005.31
2019-01-12T16:06:52.733Z,1005.26
2019-01-12T16:07:33.162Z,1005.31
2019-01-12T16:08:13.598Z,1005.3
2019-01-12T16:08:54.016Z,1005.1
2019-01-12T16:09:34.372Z,1005.16
2019-01-12T16:10:14.871Z,1005.24
2019-01-12T16:10:55.207Z,1005.23
2019-01-12T16:11:35.534Z,1005.27
2019-01-12T16:12:16.892Z,1005.23
2019-01-12T16:12:57.355Z,1005.26
2019-01-12T16:13:38.697Z,1005.28
2019-01-12T16:14:19.371Z,1005.31
2019-01-12T16:15:00.028Z,1005.31
2019-01-12T16:15:40.376Z,1005.22
2019-01-12T16:16:21.483Z,1005.25
2019-01-12T16:17:01.805Z,1005.21
2019-01-12T16:17:42.769Z,1005.23
2019-01-12T16:18:40.512Z,1005.19
2019-01-12T16:19:20.930Z,1005.18
2019-01-12T16:20:01.259Z,1005.21
2019-01-12T16:20:41.773Z,1005.26
2019-01-12T16:21:22.264Z,1005.26
2019-01-12T16:22:03.282Z,1005.28
2019-01-12T16:22:44.410Z,1005.27
2019-01-12T16:23:24.804Z,1005.27
2019-01-12T16:24:05.245Z,1005.23
2019-01-12T16:24:45.779Z,1005.22
2019-01-12T16:25:26.188Z,1005.23
2019-01-12T16:26:06.534Z,1005.15
2019-01-12T16:26:46.952Z,1005.24
2019-01-12T16:27:27.297Z,1005.21
2019-01-12T16:28:07.773Z,1005.17
2019-01-12T16:28:49.577Z,1005.23
2019-01-12T16:29:30.225Z,1005.23
2019-01-12T16:30:10.452Z,1005.22
2019-01-12T16:30:50.812Z,1005.07
2019-01-12T16:31:31.358Z,1005.15
2019-01-12T17:09:42.191Z,1004.87
2019-01-12T17:10:39.642Z,1004.89
2019-01-12T17:11:21.000Z,1004.89
2019-01-12T17:12:03.062Z,1004.88
2019-01-12T17:12:45.800Z,1004.86
2019-01-12T17:13:26.246Z,1004.77
2019-01-12T17:14:08.436Z,1004.89
2019-01-12T17:14:49.172Z,1004.92
2019-01-12T17:15:34.549Z,1004.87
2019-01-12T17:16:09.879Z,1004.93
2019-01-12T17:16:50.327Z,1004.97
2019-01-12T17:17:33.245Z,1004.97
2019-01-12T17:18:15.980Z,1004.93
2019-01-12T17:18:56.393Z,1004.92
2019-01-12T17:19:36.777Z,1004.97
2019-01-12T17:20:17.175Z,1004.86
2019-01-12T17:20:58.587Z,1004.95